Time;durP1;ratioP1;P1;durP2;ratioP2;P2;SDS_P1;SDS_P2;PMS_P1;PMS_P2;Temp;Humidity;BMP_temperature;BMP_pressure;BME280_temperature;BME280_humidity;BME280_pressure;Samples;Min_cycle;Max_cycle;Signal;HPM_P1;HPM_P2
2020/12/23 00:01:07;;;;;;;3.45;1.80;;;;;;;17.60;56.79;101452.34;4807630;29;20035;-81
2020/12/23 00:03:33;;;;;;;2.88;1.90;;;;;;;17.61;56.90;101456.66;4809532;29;20038;-81
2020/12/23 00:05:58;;;;;;;2.40;1.70;;;;;;;17.58;56.63;101454.09;4813016;29;20033;-81
2020/12/23 00:08:23;;;;;;;2.72;2.05;;;;;;;17.59;56.85;101454.94;4812744;29;20098;-81
2020/12/23 00:10:49;;;;;;;2.58;1.90;;;;;;;17.60;56.98;101452.34;4811137;29;20484;-81
2020/12/23 00:13:15;;;;;;;2.78;1.67;;;;;;;17.58;56.96;101445.41;4797262;29;20042;-79
2020/12/23 00:15:40;;;;;;;2.78;1.73;;;;;;;17.60;57.13;101430.66;4812632;29;20034;-79
2020/12/23 00:18:06;;;;;;;2.60;1.90;;;;;;;17.60;56.98;101430.66;4825921;29;20417;-79
2020/12/23 00:20:31;;;;;;;1.98;1.70;;;;;;;17.59;56.73;101432.38;4797330;29;20038;-79
2020/12/23 00:22:57;;;;;;;2.50;1.77;;;;;;;17.59;57.04;101431.53;4826533;29;20034;-79
2020/12/23 00:25:22;;;;;;;2.88;1.70;;;;;;;17.59;56.97;101424.56;4814374;29;20091;-81
2020/12/23 00:27:47;;;;;;;2.22;1.58;;;;;;;17.60;56.91;101417.66;4812210;29;20046;-79
2020/12/23 00:30:13;;;;;;;2.60;1.83;;;;;;;17.60;56.82;101409.84;4821601;29;20165;-81
2020/12/23 00:32:38;;;;;;;1.90;1.60;;;;;;;17.59;56.75;101411.56;4811595;29;20065;-81
2020/12/23 00:35:04;;;;;;;2.40;1.58;;;;;;;17.59;56.91;101411.56;4814652;29;20052;-81
2020/12/23 00:37:29;;;;;;;2.65;1.50;;;;;;;17.59;57.04;101408.97;4824467;29;20402;-81
2020/12/23 00:39:55;;;;;;;3.38;1.63;;;;;;;17.59;56.89;101414.16;4828069;29;20041;-81
2020/12/23 00:42:23;;;;;;;2.28;1.80;;;;;;;17.58;57.14;101406.38;4808248;29;20037;-81
2020/12/23 00:44:51;;;;;;;2.83;2.00;;;;;;;17.58;56.65;101406.38;4832289;29;20034;-81
2020/12/23 00:47:17;;;;;;;2.60;1.67;;;;;;;17.57;56.86;101397.72;4826827;29;20046;-81
2020/12/23 00:49:42;;;;;;;3.33;2.00;;;;;;;17.58;56.85;101402.03;4828524;29;20044;-81
2020/12/23 00:52:08;;;;;;;3.42;2.15;;;;;;;17.59;56.88;101395.09;4810901;29;20055;-81
2020/12/23 00:54:33;;;;;;;3.30;2.10;;;;;;;17.56;56.76;101390.75;4810222;29;20026;-81
2020/12/23 00:56:58;;;;;;;3.05;1.52;;;;;;;17.58;56.93;101394.22;4822055;29;20049;-81
2020/12/23 00:59:24;;;;;;;2.85;1.90;;;;;;;17.57;56.80;101392.50;4807978;29;20087;-81
2020/12/23 01:01:55;;;;;;;2.50;1.80;;;;;;;17.58;56.91;101390.75;4826800;29;20043;-81
2020/12/23 01:04:20;;;;;;;3.88;1.70;;;;;;;17.57;57.03;101386.41;4816523;29;20124;-81
2020/12/23 01:06:45;;;;;;;2.65;1.73;;;;;;;17.57;56.86;101389.00;4801159;29;20068;-81
2020/12/23 01:09:11;;;;;;;2.72;1.80;;;;;;;17.57;56.88;101394.22;4797220;29;20367;-81
2020/12/23 01:11:36;;;;;;;2.05;1.58;;;;;;;17.56;56.98;101401.16;4813129;29;20401;-81
2020/12/23 01:14:01;;;;;;;3.25;1.90;;;;;;;17.57;56.47;101400.31;4812932;29;20030;-81
2020/12/23 01:16:27;;;;;;;1.92;1.50;;;;;;;17.57;56.76;101402.03;4814976;29;20398;-81
2020/12/23 01:18:52;;;;;;;2.88;1.60;;;;;;;17.57;56.94;101394.22;4799604;29;20034;-81
2020/12/23 01:21:18;;;;;;;3.72;1.77;;;;;;;17.57;56.90;101394.22;4843355;29;20044;-81
2020/12/23 01:23:43;;;;;;;2.42;1.65;;;;;;;17.56;56.72;101382.94;4817226;29;20030;-81
2020/12/23 01:26:10;;;;;;;2.47;1.63;;;;;;;17.57;56.61;101381.22;4809876;29;20040;-81
2020/12/23 01:28:35;;;;;;;2.83;1.88;;;;;;;17.55;56.80;101385.53;4826035;29;20355;-81
2020/12/23 01:31:01;;;;;;;2.85;1.85;;;;;;;17.56;56.72;101390.75;4811152;29;20162;-81
2020/12/23 01:33:27;;;;;;;2.78;1.88;;;;;;;17.55;56.78;101389.03;4814954;29;20039;-81
2020/12/23 01:35:52;;;;;;;2.35;1.65;;;;;;;17.55;56.92;101393.34;4808308;29;20054;-81
2020/12/23 01:38:17;;;;;;;3.08;1.80;;;;;;;17.55;56.87;101382.94;4812164;29;20027;-81
2020/12/23 01:40:43;;;;;;;3.20;1.92;;;;;;;17.54;56.97;101381.22;4811870;29;20042;-81
2020/12/23 01:43:09;;;;;;;2.50;1.90;;;;;;;17.54;56.87;101368.22;4836203;29;20044;-81
2020/12/23 01:45:35;;;;;;;3.13;1.83;;;;;;;17.54;57.02;101373.41;4831149;29;20102;-81
2020/12/23 01:48:12;;;;;;;2.92;1.90;;;;;;;17.54;56.65;101369.06;4823313;29;20058;-81
2020/12/23 01:50:41;;;;;;;2.78;1.73;;;;;;;17.54;56.89;101374.28;4819711;29;20027;-81
2020/12/23 01:53:07;;;;;;;3.15;1.80;;;;;;;17.53;56.71;101364.75;4809326;29;20060;-81
2020/12/23 01:55:32;;;;;;;2.55;1.80;;;;;;;17.52;56.63;101357.78;4828641;29;20023;-81
2020/12/23 01:57:58;;;;;;;2.90;1.80;;;;;;;17.53;56.90;101356.06;4808762;29;20041;-81
2020/12/23 02:00:23;;;;;;;2.53;1.70;;;;;;;17.54;56.58;101357.81;4794877;29;20505;-81
2020/12/23 02:02:54;;;;;;;2.80;1.60;;;;;;;17.53;56.76;101348.25;4827742;29;20038;-81
2020/12/23 02:05:20;;;;;;;4.75;2.03;;;;;;;17.53;56.77;101351.75;4846952;29;20027;-80
2020/12/23 02:07:46;;;;;;;3.85;1.70;;;;;;;17.53;56.78;101349.13;4835857;29;20026;-81
2020/12/23 02:10:11;;;;;;;3.28;1.88;;;;;;;17.52;56.98;101338.72;4800355;29;20509;-81
2020/12/23 02:12:36;;;;;;;3.47;1.80;;;;;;;17.52;56.79;101333.50;4812438;29;20498;-81
2020/12/23 02:15:10;;;;;;;2.97;1.80;;;;;;;17.52;56.70;101323.97;4812516;29;20049;-81
2020/12/23 02:17:35;;;;;;;2.90;1.85;;;;;;;17.53;56.56;101327.44;4833722;29;20114;-81
2020/12/23 02:20:01;;;;;;;3.28;2.13;;;;;;;17.50;56.75;101317.03;4825878;29;20121;-80
2020/12/23 02:22:30;;;;;;;2.80;1.80;;;;;;;17.52;56.76;101317.91;4822263;29;20397;-80
2020/12/23 02:24:55;;;;;;;2.50;1.92;;;;;;;17.51;56.66;101310.94;4825351;29;20086;-80
2020/12/23 02:27:21;;;;;;;3.10;2.22;;;;;;;17.50;56.93;101309.22;4809341;29;20034;-80
2020/12/23 02:29:51;;;;;;;2.42;1.67;;;;;;;17.48;56.87;101310.13;4826708;29;20037;-80
2020/12/23 02:32:17;;;;;;;3.30;2.05;;;;;;;17.48;56.91;101310.13;4826500;29;20030;-80
2020/12/23 02:34:43;;;;;;;2.80;1.80;;;;;;;17.51;56.63;101305.75;4821519;29;20058;-80
2020/12/23 02:37:10;;;;;;;2.92;2.08;;;;;;;17.51;56.82;101298.84;4827048;29;20477;-78
2020/12/23 02:39:39;;;;;;;3.17;1.92;;;;;;;17.48;56.34;101291.91;4824142;29;20061;-79
2020/12/23 02:42:07;;;;;;;3.05;2.10;;;;;;;17.49;56.91;101295.38;4825146;29;20053;-80
2020/12/23 02:44:33;;;;;;;2.53;1.70;;;;;;;17.48;56.88;101281.50;4841190;29;20034;-80
2020/12/23 02:47:09;;;;;;;2.72;1.92;;;;;;;17.48;56.88;101280.59;4824151;29;20057;-80
2020/12/23 02:49:35;;;;;;;2.58;2.00;;;;;;;17.48;56.82;101285.81;4823831;29;20390;-80
2020/12/23 02:52:00;;;;;;;3.03;2.03;;;;;;;17.48;56.83;101278.00;4812695;29;20030;-80
2020/12/23 02:54:26;;;;;;;3.30;2.00;;;;;;;17.48;56.69;101281.50;4816747;29;20034;-80
2020/12/23 02:56:52;;;;;;;2.42;1.80;;;;;;;17.48;56.71;101276.28;4812538;29;20034;-80
2020/12/23 02:59:18;;;;;;;2.55;1.90;;;;;;;17.47;56.68;101274.53;4807993;29;20038;-80
2020/12/23 03:01:44;;;;;;;3.53;2.20;;;;;;;17.47;56.87;101278.88;4823680;29;20030;-80
2020/12/23 03:04:10;;;;;;;2.55;1.90;;;;;;;17.48;56.72;101265.88;4831867;29;20061;-80
2020/12/23 03:06:36;;;;;;;3.25;2.00;;;;;;;17.49;56.74;101271.94;4819110;29;20130;-80
2020/12/23 03:09:07;;;;;;;3.03;2.10;;;;;;;17.48;56.72;101268.47;4778388;29;20581;-80
2020/12/23 03:11:32;;;;;;;3.50;2.05;;;;;;;17.46;56.87;101266.72;4808565;29;20045;-80
2020/12/23 03:13:58;;;;;;;4.22;2.00;;;;;;;17.48;56.84;101271.09;4824865;29;20398;-80
2020/12/23 03:16:24;;;;;;;4.10;2.20;;;;;;;17.48;56.72;101262.38;4814869;29;20486;-80
2020/12/23 03:18:50;;;;;;;2.97;2.00;;;;;;;17.47;56.86;101260.66;4810729;29;20034;-80
2020/12/23 03:21:18;;;;;;;3.08;2.20;;;;;;;17.48;56.96;101263.28;4825754;29;20168;-80
2020/12/23 03:23:43;;;;;;;2.92;1.90;;;;;;;17.48;56.87;101254.59;4808916;29;20072;-80
2020/12/23 03:26:09;;;;;;;2.50;1.98;;;;;;;17.46;56.79;101254.59;4806976;29;20113;-80
2020/12/23 03:28:35;;;;;;;3.22;1.92;;;;;;;17.47;56.56;101251.13;4811085;29;20041;-80
2020/12/23 03:31:01;;;;;;;3.45;2.20;;;;;;;17.47;56.87;101251.13;4823083;29;20026;-80
2020/12/23 03:33:27;;;;;;;3.15;1.90;;;;;;;17.48;56.78;101249.38;4820616;29;20128;-80
2020/12/23 03:35:53;;;;;;;2.97;2.30;;;;;;;17.47;56.67;101242.47;4806470;29;20210;-80
2020/12/23 03:38:19;;;;;;;3.65;2.13;;;;;;;17.47;56.82;101245.06;4812809;29;20030;-80
2020/12/23 03:40:44;;;;;;;3.38;2.13;;;;;;;17.46;56.60;101244.19;4823654;29;20044;-79
2020/12/23 03:43:09;;;;;;;2.50;1.92;;;;;;;17.46;56.84;101228.59;4825625;29;20115;-80
2020/12/23 03:45:35;;;;;;;2.42;1.65;;;;;;;17.45;56.88;101225.97;4816267;29;20402;-80
2020/12/23 03:48:00;;;;;;;2.50;1.95;;;;;;;17.46;56.81;101219.91;4808278;29;20062;-80
2020/12/23 03:50:26;;;;;;;3.20;2.15;;;;;;;17.45;56.72;101220.78;4789990;29;20035;-80
2020/12/23 03:52:52;;;;;;;2.47;1.83;;;;;;;17.45;56.86;101216.44;4817367;29;20037;-80
2020/12/23 03:55:17;;;;;;;3.42;2.10;;;;;;;17.46;56.92;101212.09;4825361;29;20041;-80
2020/12/23 03:57:43;;;;;;;2.97;2.10;;;;;;;17.44;56.75;101206.91;4802724;29;20050;-80
2020/12/23 04:00:10;;;;;;;2.65;2.20;;;;;;;17.44;56.92;101209.50;4822406;29;20076;-80
2020/12/23 04:02:35;;;;;;;2.63;2.00;;;;;;;17.43;56.96;101209.50;4826062;29;20132;-79
2020/12/23 04:05:01;;;;;;;3.28;2.08;;;;;;;17.45;56.96;101216.44;4806073;29;20530;-80
2020/12/23 04:07:27;;;;;;;2.00;1.70;;;;;;;17.44;56.74;101216.44;4823395;29;20069;-80
2020/12/23 04:09:55;;;;;;;2.88;1.88;;;;;;;17.44;56.85;101212.13;4821395;29;20049;-80
2020/12/23 04:12:21;;;;;;;3.15;2.10;;;;;;;17.45;56.86;101205.16;4793840;29;20034;-80
2020/12/23 04:14:46;;;;;;;2.50;1.80;;;;;;;17.43;56.82;101202.56;4794111;29;20114;-80
2020/12/23 04:17:12;;;;;;;2.65;1.83;;;;;;;17.44;56.75;101196.50;4809865;29;20037;-80
2020/12/23 04:19:37;;;;;;;2.17;1.80;;;;;;;17.44;56.81;101211.22;4808541;29;20466;-80
2020/12/23 04:22:03;;;;;;;2.72;1.90;;;;;;;17.44;56.85;101209.50;4822660;29;20049;-80
2020/12/23 04:24:28;;;;;;;2.30;1.90;;;;;;;17.44;56.72;101200.81;4806313;29;20079;-80
2020/12/23 04:26:53;;;;;;;3.20;2.05;;;;;;;17.43;56.84;101194.75;4806955;29;20053;-79
2020/12/23 04:29:19;;;;;;;2.30;1.75;;;;;;;17.42;56.96;101192.16;4839433;29;20026;-80
2020/12/23 04:31:44;;;;;;;2.20;1.80;;;;;;;17.41;56.81;101180.88;4805461;29;20038;-80
2020/12/23 04:34:10;;;;;;;2.00;1.70;;;;;;;17.43;57.05;101181.75;4822790;29;20030;-80
2020/12/23 04:36:35;;;;;;;3.47;1.80;;;;;;;17.42;56.86;101177.44;4821656;29;20040;-81
2020/12/23 04:39:01;;;;;;;2.10;1.80;;;;;;;17.43;56.82;101171.34;4824972;29;20034;-80
2020/12/23 04:41:31;;;;;;;2.10;1.80;;;;;;;17.44;56.83;101169.59;4824100;29;20107;-80
2020/12/23 04:43:57;;;;;;;2.28;1.70;;;;;;;17.43;56.97;101162.69;4820853;29;20034;-78
2020/12/23 04:46:28;;;;;;;2.28;1.70;;;;;;;17.42;56.79;101158.31;4804766;29;20104;-78
2020/12/23 04:48:57;;;;;;;2.10;1.80;;;;;;;17.42;56.82;101156.63;4827581;29;20061;-79
2020/12/23 04:51:30;;;;;;;2.72;1.70;;;;;;;17.43;56.86;101147.94;4826340;29;20078;-79
2020/12/23 04:53:57;;;;;;;2.47;1.73;;;;;;;17.44;56.75;101141.88;4827322;29;20041;-79
2020/12/23 04:56:26;;;;;;;2.40;1.90;;;;;;;17.42;56.74;101141.00;4827433;29;20037;-79
2020/12/23 04:58:53;;;;;;;2.15;1.70;;;;;;;17.42;57.03;101137.50;4842264;29;20098;-79
2020/12/23 05:01:18;;;;;;;2.00;1.75;;;;;;;17.42;56.73;101137.50;4815143;29;20034;-79
2020/12/23 05:03:44;;;;;;;2.85;1.77;;;;;;;17.40;56.82;101144.50;4793780;29;20082;-79
2020/12/23 05:06:10;;;;;;;1.98;1.65;;;;;;;17.42;56.97;101142.72;4827605;29;20442;-79
2020/12/23 05:08:35;;;;;;;2.28;1.63;;;;;;;17.42;56.98;101143.59;4826243;29;20061;-79
2020/12/23 05:11:08;;;;;;;2.25;1.75;;;;;;;17.42;56.62;101143.59;4828269;29;20033;-79
2020/12/23 05:13:34;;;;;;;2.47;1.87;;;;;;;17.41;56.69;101138.41;4825454;29;20038;-79
2020/12/23 05:16:00;;;;;;;2.13;1.58;;;;;;;17.42;56.91;101140.13;4799039;29;20038;-81
2020/12/23 05:18:45;;;;;;;2.00;1.77;;;;;;;17.40;57.05;101140.16;4808553;29;20558;-81
2020/12/23 05:21:17;;;;;;;2.40;1.67;;;;;;;17.41;56.92;101134.06;4825361;29;20073;-81
2020/12/23 05:23:44;;;;;;;2.20;1.80;;;;;;;17.42;56.78;101135.81;4825510;29;20112;-80
2020/12/23 05:26:10;;;;;;;2.35;1.90;;;;;;;17.40;56.82;101124.53;4832931;29;20106;-81
2020/12/23 05:28:37;;;;;;;2.30;1.80;;;;;;;17.42;56.91;101121.91;4821774;29;20038;-81
2020/12/23 05:31:04;;;;;;;2.38;1.90;;;;;;;17.41;56.85;101115.00;4832055;29;20045;-80
2020/12/23 05:33:37;;;;;;;2.33;1.70;;;;;;;17.41;56.94;101117.59;4824841;29;20130;-79
2020/12/23 05:36:04;;;;;;;2.17;1.58;;;;;;;17.40;56.60;101111.53;4822257;29;20122;-79
2020/12/23 05:38:31;;;;;;;2.10;1.70;;;;;;;17.41;56.56;101109.78;4815503;29;20042;-79
2020/12/23 05:40:59;;;;;;;2.42;1.90;;;;;;;17.41;56.99;101110.66;4811338;29;20042;-80
2020/12/23 05:43:26;;;;;;;2.17;1.70;;;;;;;17.40;56.99;101106.31;4828127;29;20026;-81
2020/12/23 05:45:59;;;;;;;2.65;1.88;;;;;;;17.42;56.87;101107.19;4829095;29;20487;-82
2020/12/23 05:48:27;;;;;;;2.10;1.80;;;;;;;17.44;56.98;101109.75;4811407;29;20555;-79
2020/12/23 05:50:52;;;;;;;2.53;2.15;;;;;;;17.42;56.97;101109.78;4807415;29;20726;-81
2020/12/23 05:53:18;;;;;;;2.53;1.80;;;;;;;17.44;56.91;101101.97;4825022;29;20034;-80
2020/12/23 05:55:45;;;;;;;2.25;1.55;;;;;;;17.44;56.90;101097.63;4812086;29;20481;-80
2020/12/23 05:58:20;;;;;;;2.15;1.65;;;;;;;17.46;56.89;101105.41;4826204;29;20121;-80
2020/12/23 06:00:50;;;;;;;2.08;1.70;;;;;;;17.44;57.02;101105.44;4826533;29;20030;-79
2020/12/23 06:03:44;;;;;;;1.92;1.50;;;;;;;17.44;57.09;101105.44;4842429;29;20041;-79
2020/12/23 06:06:12;;;;;;;6.93;2.55;;;;;;;17.46;57.28;101108.03;4833050;29;20030;-80
2020/12/23 06:08:38;;;;;;;12.18;4.07;;;;;;;17.62;57.52;101095.81;4843205;29;20072;-78
2020/12/23 06:11:29;;;;;;;18.33;6.05;;;;;;;17.71;58.24;101098.34;4827388;29;20070;-77
2020/12/23 06:14:23;;;;;;;13.02;4.70;;;;;;;17.78;58.54;101086.16;4825501;29;20034;-76
2020/12/23 06:16:58;;;;;;;11.85;4.28;;;;;;;17.86;58.83;101081.81;4846830;29;20094;-76
2020/12/23 06:19:28;;;;;;;16.63;4.55;;;;;;;17.83;58.92;101080.09;4810751;29;20509;-76
2020/12/23 06:21:56;;;;;;;17.42;5.50;;;;;;;17.82;58.74;101073.16;4826534;29;20038;-76
2020/12/23 06:24:22;;;;;;;10.00;3.90;;;;;;;17.82;59.04;101069.69;4819342;29;20125;-76
2020/12/23 06:26:51;;;;;;;10.65;4.05;;;;;;;17.82;58.58;101065.34;4826090;29;20042;-75
2020/12/23 06:29:23;;;;;;;7.85;3.40;;;;;;;17.82;59.19;101064.47;4826099;29;20299;-76
2020/12/23 06:31:51;;;;;;;10.68;3.45;;;;;;;17.82;59.22;101060.13;4824858;29;20026;-76
2020/12/23 06:34:24;;;;;;;10.98;3.75;;;;;;;17.83;58.93;101063.59;4829569;29;20087;-77
2020/12/23 06:36:51;;;;;;;7.15;3.13;;;;;;;17.82;59.06;101061.88;4827123;29;20367;-77
2020/12/23 06:39:37;;;;;;;7.38;3.17;;;;;;;17.82;58.90;101065.34;4822154;29;20144;-78
2020/12/23 06:42:03;;;;;;;7.05;3.08;;;;;;;17.83;59.04;101066.19;4844828;29;20034;-78
2020/12/23 06:44:43;;;;;;;7.97;2.60;;;;;;;17.83;59.39;101066.19;4836269;29;20557;-79
2020/12/23 06:47:17;;;;;;;6.35;2.75;;;;;;;17.84;59.09;101067.94;4847944;29;20046;-78
2020/12/23 06:50:00;;;;;;;7.60;2.85;;;;;;;17.83;59.21;101061.88;4840657;29;20037;-78
2020/12/23 06:52:28;;;;;;;5.88;2.78;;;;;;;17.85;59.54;101057.50;4830270;29;20042;-78
2020/12/23 06:54:55;;;;;;;5.82;3.15;;;;;;;17.84;59.23;101068.81;4815400;29;20030;-78
2020/12/23 06:57:35;;;;;;;5.30;2.35;;;;;;;17.86;59.19;101056.63;4826991;29;20057;-78
2020/12/23 07:00:28;;;;;;;11.40;2.60;;;;;;;17.87;59.54;101052.28;4838583;29;20428;-78
2020/12/23 07:02:58;;;;;;;4.30;2.40;;;;;;;17.87;59.20;101049.69;4825026;29;20031;-78
2020/12/23 07:05:24;;;;;;;5.10;2.47;;;;;;;17.87;59.21;101039.28;4823537;29;20397;-79
2020/12/23 07:07:53;;;;;;;6.22;2.70;;;;;;;17.87;59.39;101029.72;4828999;29;20059;-78
2020/12/23 07:10:24;;;;;;;5.95;2.17;;;;;;;17.85;59.27;101018.44;4818003;29;20034;-78
2020/12/23 07:12:59;;;;;;;4.47;2.30;;;;;;;17.89;59.19;101024.50;4817315;29;20062;-78
2020/12/23 07:15:32;;;;;;;4.45;2.53;;;;;;;17.89;59.39;101037.53;4825206;29;20397;-79
2020/12/23 07:17:58;;;;;;;4.90;2.30;;;;;;;17.88;59.24;101035.81;4821493;29;20086;-79
2020/12/23 07:20:24;;;;;;;4.80;2.55;;;;;;;17.89;59.17;101027.97;4823814;29;20034;-78
2020/12/23 07:22:51;;;;;;;5.38;2.22;;;;;;;17.89;59.33;101027.97;4826567;29;20039;-78
2020/12/23 07:25:27;;;;;;;4.95;2.20;;;;;;;17.89;59.13;101029.72;4825089;29;20026;-78
2020/12/23 07:27:57;;;;;;;4.50;1.98;;;;;;;17.89;59.04;101024.50;4816848;29;20041;-78
2020/12/23 07:30:24;;;;;;;5.10;2.15;;;;;;;17.92;59.39;101040.13;4784017;29;20122;-78
2020/12/23 07:33:10;;;;;;;2.78;2.00;;;;;;;17.92;59.49;101031.41;4823469;29;20038;-78
2020/12/23 07:35:37;;;;;;;3.13;1.95;;;;;;;17.91;59.54;101037.53;4812788;29;20019;-78
2020/12/23 07:38:04;;;;;;;3.22;2.08;;;;;;;17.92;59.26;101036.63;4824265;29;20125;-78
2020/12/23 07:40:30;;;;;;;4.00;1.88;;;;;;;17.91;59.30;101035.78;4824188;29;20438;-78
2020/12/23 07:42:56;;;;;;;3.38;1.98;;;;;;;17.93;59.44;101036.63;4824488;29;20042;-78
2020/12/23 07:45:23;;;;;;;4.00;2.00;;;;;;;17.92;59.68;101042.72;4824657;29;20375;-78
2020/12/23 07:47:53;;;;;;;3.20;2.03;;;;;;;17.93;59.38;101036.63;4809596;29;20030;-78
2020/12/23 07:50:19;;;;;;;2.95;1.90;;;;;;;17.92;59.36;101037.53;4824510;29;20117;-78
2020/12/23 07:52:44;;;;;;;2.92;2.00;;;;;;;17.91;59.33;101040.13;4814875;29;20129;-78
2020/12/23 07:55:11;;;;;;;3.65;2.30;;;;;;;17.90;59.46;101039.28;4792149;29;20042;-78
2020/12/23 07:57:37;;;;;;;3.15;1.67;;;;;;;17.87;59.51;101034.91;4821599;29;20045;-79
2020/12/23 08:00:05;;;;;;;2.67;1.80;;;;;;;17.87;59.26;101034.91;4800869;29;20034;-78
2020/12/23 08:02:31;;;;;;;2.70;1.85;;;;;;;17.87;59.46;101028.84;4817587;29;20026;-78
2020/12/23 08:04:56;;;;;;;3.75;2.10;;;;;;;17.86;59.47;101029.75;4815425;29;20398;-79
2020/12/23 08:07:23;;;;;;;2.97;1.77;;;;;;;17.85;59.30;101023.66;4794402;29;20026;-78
2020/12/23 08:09:48;;;;;;;2.45;1.83;;;;;;;17.85;59.46;101023.66;4806939;29;20026;-78
2020/12/23 08:12:19;;;;;;;2.40;1.60;;;;;;;17.84;59.55;101027.16;4824051;29;20034;-78
2020/12/23 08:14:45;;;;;;;3.63;1.80;;;;;;;17.84;59.72;101029.75;4800671;29;20067;-78
2020/12/23 08:17:23;;;;;;;3.35;1.70;;;;;;;17.84;59.48;101034.09;4826258;29;20061;-77
2020/12/23 08:20:01;;;;;;;2.55;1.65;;;;;;;17.83;59.61;101020.22;4797298;29;20087;-78
2020/12/23 08:22:27;;;;;;;4.38;1.75;;;;;;;17.83;59.39;101028.03;4818502;29;20061;-78
2020/12/23 08:25:01;;;;;;;3.75;1.73;;;;;;;17.85;59.51;101017.59;4800652;29;20439;-77
2020/12/23 08:27:27;;;;;;;2.95;2.10;;;;;;;17.85;59.47;101017.59;4822477;29;20022;-78
2020/12/23 08:29:53;;;;;;;3.60;1.50;;;;;;;17.87;59.41;101013.25;4790541;29;20065;-78
2020/12/23 08:32:24;;;;;;;2.80;1.80;;;;;;;17.89;59.35;101011.50;4785410;29;20043;-78
2020/12/23 08:34:52;;;;;;;3.40;1.67;;;;;;;17.92;59.36;101018.41;4829049;29;20035;-78
2020/12/23 08:37:21;;;;;;;2.40;1.60;;;;;;;17.92;59.31;101015.81;4807494;29;20129;-78
2020/12/23 08:39:52;;;;;;;2.60;1.60;;;;;;;17.92;59.52;101021.91;4808683;29;20371;-78
2020/12/23 08:42:20;;;;;;;2.92;1.65;;;;;;;17.93;59.45;101018.41;4824584;29;20057;-78
2020/12/23 08:44:48;;;;;;;2.55;1.63;;;;;;;17.94;59.35;101022.72;4804432;29;20399;-78
2020/12/23 08:47:20;;;;;;;2.28;1.60;;;;;;;17.95;59.19;101023.59;4820516;29;20046;-78
2020/12/23 08:49:47;;;;;;;2.22;1.60;;;;;;;17.95;59.34;101021.84;4823780;29;20031;-78
2020/12/23 08:52:17;;;;;;;2.65;1.65;;;;;;;17.96;59.47;101020.97;4822220;29;20086;-78
2020/12/23 08:54:43;;;;;;;1.77;1.30;;;;;;;17.97;59.41;101012.28;4806748;29;20030;-78
2020/12/23 08:57:10;;;;;;;2.63;1.42;;;;;;;17.97;59.39;101014.91;4801971;29;20094;-77
2020/12/23 08:59:40;;;;;;;2.92;1.25;;;;;;;17.98;59.39;101010.53;4815152;29;20033;-78
2020/12/23 09:02:15;;;;;;;2.00;1.20;;;;;;;17.98;59.22;101005.34;4802089;29;20041;-77
2020/12/23 09:04:41;;;;;;;2.00;1.15;;;;;;;17.98;59.27;101008.81;4803328;29;20038;-78
2020/12/23 09:07:07;;;;;;;3.05;1.30;;;;;;;17.98;59.43;101003.59;4818464;29;20042;-78
2020/12/23 09:09:33;;;;;;;2.40;1.30;;;;;;;17.99;59.55;101002.72;4818767;29;20034;-78
2020/12/23 09:12:01;;;;;;;2.13;1.20;;;;;;;17.98;59.48;100994.94;4818001;29;20501;-78
2020/12/23 09:14:38;;;;;;;1.77;1.20;;;;;;;17.99;59.54;100984.50;4821469;29;20549;-78
2020/12/23 09:17:23;;;;;;;1.88;1.27;;;;;;;18.00;59.47;100982.75;4812399;29;20034;-78
2020/12/23 09:19:52;;;;;;;2.85;1.25;;;;;;;17.99;59.54;100974.09;4816214;29;20188;-78
2020/12/23 09:22:27;;;;;;;2.03;1.23;;;;;;;17.98;59.67;100968.88;4817439;29;20064;-77
2020/12/23 09:25:19;;;;;;;2.42;1.27;;;;;;;17.98;59.50;100966.28;4805863;29;20117;-78
2020/12/23 09:27:47;;;;;;;2.63;1.25;;;;;;;17.97;59.55;100960.22;4814283;29;20082;-78
2020/12/23 09:30:13;;;;;;;1.75;1.10;;;;;;;17.96;59.52;100970.63;4838465;29;20034;-79
2020/12/23 09:32:52;;;;;;;3.05;1.10;;;;;;;17.95;59.77;100966.31;4816965;29;20030;-78
2020/12/23 09:35:24;;;;;;;1.40;1.10;;;;;;;17.94;59.49;100965.44;4833357;29;20131;-78
2020/12/23 09:38:01;;;;;;;1.90;1.10;;;;;;;17.95;59.62;100969.78;4823299;29;20125;-78
2020/12/23 09:40:26;;;;;;;2.00;1.10;;;;;;;17.97;59.51;100969.78;4819464;29;20038;-77
2020/12/23 09:42:51;;;;;;;4.32;1.00;;;;;;;17.98;59.41;100966.28;4822983;29;20034;-76
2020/12/23 09:45:17;;;;;;;1.55;1.08;;;;;;;17.98;59.56;100967.13;4835818;29;20391;-76
2020/12/23 09:47:43;;;;;;;3.03;0.93;;;;;;;18.00;59.53;100968.00;4802863;29;20053;-76
2020/12/23 09:50:09;;;;;;;2.22;1.00;;;;;;;18.00;59.28;100960.19;4802015;29;20130;-76
2020/12/23 09:52:34;;;;;;;1.67;1.02;;;;;;;18.02;59.44;100958.44;4806947;29;20045;-76
2020/12/23 09:54:59;;;;;;;1.80;1.02;;;;;;;18.03;59.38;100956.69;4788916;29;20386;-78
2020/12/23 09:57:25;;;;;;;1.70;1.02;;;;;;;18.03;59.63;100954.97;4780644;29;20039;-78
2020/12/23 09:59:50;;;;;;;1.50;1.13;;;;;;;18.03;59.49;100941.94;4818495;29;20039;-78
2020/12/23 10:02:15;;;;;;;1.70;1.05;;;;;;;18.05;59.38;100940.19;4822346;29;20030;-78
2020/12/23 10:04:41;;;;;;;1.33;0.80;;;;;;;18.05;59.35;100937.59;4816108;29;20031;-78
2020/12/23 10:07:09;;;;;;;2.33;1.20;;;;;;;18.06;59.55;100934.09;4807818;29;20125;-78
2020/12/23 10:09:34;;;;;;;1.48;0.90;;;;;;;18.07;59.55;100929.72;4796718;29;20042;-78
2020/12/23 10:11:59;;;;;;;1.13;0.70;;;;;;;18.07;59.59;100933.22;4822578;29;20042;-78
2020/12/23 10:14:25;;;;;;;1.23;0.75;;;;;;;18.08;59.59;100926.28;4822712;29;20402;-78
2020/12/23 10:16:50;;;;;;;1.33;0.95;;;;;;;18.09;59.54;100925.38;4822745;29;20038;-78
2020/12/23 10:19:15;;;;;;;2.13;0.98;;;;;;;18.11;59.65;100913.19;4800248;29;20379;-78
2020/12/23 10:21:41;;;;;;;1.50;0.90;;;;;;;18.09;59.63;100914.97;4819705;29;20041;-78
2020/12/23 10:24:06;;;;;;;1.50;0.90;;;;;;;18.12;59.43;100919.25;4815726;29;20593;-76
2020/12/23 10:26:31;;;;;;;1.25;0.93;;;;;;;18.11;59.54;100912.34;4818944;29;20058;-76
2020/12/23 10:28:57;;;;;;;1.60;0.88;;;;;;;18.11;59.97;100908.00;4809868;29;20054;-76
2020/12/23 10:31:22;;;;;;;2.33;0.82;;;;;;;18.12;59.52;100904.53;4793291;29;20039;-76
2020/12/23 10:33:47;;;;;;;1.13;0.70;;;;;;;18.13;59.46;100901.03;4810244;29;20038;-76
2020/12/23 10:36:14;;;;;;;1.13;0.65;;;;;;;18.13;59.56;100894.97;4825000;29;20138;-76
2020/12/23 10:38:43;;;;;;;1.10;0.70;;;;;;;18.12;59.61;100893.22;4821296;29;20241;-76
2020/12/23 10:41:09;;;;;;;1.70;0.90;;;;;;;18.13;59.54;100890.59;4835936;29;20121;-76
2020/12/23 10:43:34;;;;;;;1.00;0.80;;;;;;;18.13;59.69;100898.44;4825729;29;20163;-76
2020/12/23 10:46:00;;;;;;;1.08;0.75;;;;;;;18.13;59.74;100890.59;4825220;29;20506;-78
2020/12/23 10:48:25;;;;;;;1.00;0.80;;;;;;;18.14;59.75;100879.34;4804889;29;20432;-76
2020/12/23 10:50:50;;;;;;;1.35;0.80;;;;;;;18.15;59.55;100868.03;4803494;29;20034;-76
2020/12/23 10:53:16;;;;;;;0.93;0.70;;;;;;;18.15;59.68;100864.56;4795431;29;20030;-77
2020/12/23 10:55:41;;;;;;;0.95;0.60;;;;;;;18.15;59.64;100857.59;4822081;29;20034;-76
2020/12/23 10:58:07;;;;;;;1.65;0.90;;;;;;;18.15;59.75;100844.56;4808201;29;20080;-76
2020/12/23 11:00:32;;;;;;;1.15;0.82;;;;;;;18.16;59.72;100840.22;4816083;29;20372;-77
2020/12/23 11:02:58;;;;;;;1.27;0.85;;;;;;;18.17;59.49;100832.41;4829275;29;20037;-76
2020/12/23 11:05:23;;;;;;;1.23;0.73;;;;;;;18.19;59.55;100835.00;4802152;29;20368;-76
2020/12/23 11:07:49;;;;;;;1.73;0.80;;;;;;;18.20;59.59;100839.31;4796303;29;20030;-76
2020/12/23 11:10:15;;;;;;;1.63;0.80;;;;;;;18.19;59.78;100829.78;4801069;29;20035;-77
2020/12/23 11:12:40;;;;;;;1.48;0.80;;;;;;;18.20;59.71;100829.75;4815544;29;20117;-76
2020/12/23 11:15:06;;;;;;;1.70;1.00;;;;;;;18.20;59.69;100828.88;4810030;29;20034;-79
2020/12/23 11:17:31;;;;;;;1.10;0.73;;;;;;;18.21;59.93;100821.06;4813727;29;20058;-79
2020/12/23 11:20:02;;;;;;;0.98;0.63;;;;;;;18.22;59.53;100824.53;4800950;29;20038;-79
2020/12/23 11:22:28;;;;;;;1.33;0.75;;;;;;;18.19;59.68;100815.00;4804874;29;20027;-79
2020/12/23 11:24:53;;;;;;;0.65;0.65;;;;;;;18.19;60.00;100809.81;4814335;29;20038;-79
2020/12/23 11:27:18;;;;;;;0.98;0.57;;;;;;;18.20;59.67;100798.50;4787334;29;20023;-79